createdAt,value
2018-08-17T00:01:53.538Z,4.03
2018-08-17T00:04:20.708Z,4.40
2018-08-17T00:06:47.875Z,4.80
2018-08-17T00:09:15.044Z,4.90
2018-08-17T00:11:42.182Z,4.37
2018-08-17T00:14:09.654Z,4.83
2018-08-17T00:16:37.091Z,4.70
2018-08-17T00:19:04.572Z,4.50
2018-08-17T00:21:31.743Z,4.50
2018-08-17T00:23:59.069Z,4.77
2018-08-17T00:26:26.419Z,4.60
2018-08-17T00:28:53.587Z,4.53
2018-08-17T00:31:20.786Z,4.83
2018-08-17T00:33:48.183Z,4.90
2018-08-17T00:36:15.362Z,4.67
2018-08-17T00:38:42.546Z,5.13
2018-08-17T00:41:09.707Z,4.80
2018-08-17T00:43:36.874Z,4.23
2018-08-17T00:46:04.030Z,4.37
2018-08-17T00:48:31.227Z,4.60
2018-08-17T00:50:58.384Z,4.40
2018-08-17T00:53:25.541Z,4.30
2018-08-17T00:55:52.695Z,4.13
2018-08-17T00:58:19.874Z,4.40
2018-08-17T01:00:47.138Z,3.80
2018-08-17T01:03:14.316Z,4.30
2018-08-17T01:05:41.472Z,4.27
2018-08-17T01:08:08.814Z,4.30
2018-08-17T01:10:35.997Z,4.67
2018-08-17T01:13:05.182Z,4.23
2018-08-17T01:15:32.342Z,3.90
2018-08-17T01:17:59.515Z,4.63
2018-08-17T01:20:26.679Z,4.33
2018-08-17T01:22:53.856Z,4.60
2018-08-17T01:25:21.011Z,5.20
2018-08-17T01:27:48.195Z,4.60
2018-08-17T01:30:15.350Z,4.80
2018-08-17T01:32:42.512Z,4.97
2018-08-17T01:35:09.689Z,4.77
2018-08-17T01:37:36.885Z,5.47
2018-08-17T01:40:04.307Z,4.80
2018-08-17T01:42:31.450Z,5.20
2018-08-17T01:44:58.627Z,4.70
2018-08-17T01:47:25.778Z,4.83
2018-08-17T01:49:52.955Z,5.07
2018-08-17T01:52:20.109Z,5.20
2018-08-17T01:54:47.280Z,5.17
2018-08-17T01:57:14.443Z,4.97
2018-08-17T01:59:41.610Z,4.73
2018-08-17T02:02:08.766Z,5.80
2018-08-17T02:04:35.931Z,5.37
2018-08-17T02:07:03.127Z,5.83
2018-08-17T02:09:30.289Z,5.90
2018-08-17T02:11:57.452Z,5.30
2018-08-17T02:14:24.622Z,5.97
2018-08-17T02:16:51.768Z,5.20
2018-08-17T02:19:18.942Z,5.70
2018-08-17T02:21:46.094Z,5.67
2018-08-17T02:24:13.294Z,5.53
2018-08-17T02:26:40.452Z,5.70
2018-08-17T02:29:07.615Z,5.77
2018-08-17T02:31:34.766Z,5.17
2018-08-17T02:34:01.931Z,5.77
2018-08-17T02:36:29.083Z,5.37
2018-08-17T02:38:56.272Z,6.00
2018-08-17T02:41:23.434Z,5.23
2018-08-17T02:43:50.611Z,5.33
2018-08-17T02:46:17.767Z,5.30
2018-08-17T02:48:44.942Z,5.60
2018-08-17T02:51:12.102Z,5.33
2018-08-17T02:53:39.285Z,5.87
2018-08-17T02:56:06.443Z,5.97
2018-08-17T02:58:33.620Z,6.10
2018-08-17T03:01:00.774Z,5.57
2018-08-17T03:03:27.934Z,5.40
2018-08-17T03:05:55.078Z,6.00
2018-08-17T03:08:22.248Z,5.57
2018-08-17T03:10:49.423Z,5.50
2018-08-17T03:13:16.567Z,6.00
2018-08-17T03:15:43.732Z,5.90
2018-08-17T03:18:10.895Z,5.80
2018-08-17T03:20:38.069Z,5.87
2018-08-17T03:23:05.240Z,6.40
2018-08-17T03:25:32.411Z,5.73
2018-08-17T03:27:59.583Z,6.50
2018-08-17T03:30:26.746Z,6.07
2018-08-17T03:32:53.903Z,6.53
2018-08-17T03:35:21.065Z,5.80
2018-08-17T03:37:48.222Z,5.80
2018-08-17T03:40:15.382Z,6.43
2018-08-17T03:42:42.534Z,6.13
2018-08-17T03:45:09.717Z,6.40
2018-08-17T03:47:36.862Z,6.57
2018-08-17T03:50:04.347Z,5.70
2018-08-17T03:52:31.506Z,6.07
2018-08-17T03:54:58.670Z,5.70
2018-08-17T03:57:25.846Z,5.90
2018-08-17T03:59:53.007Z,5.80
2018-08-17T04:02:20.156Z,5.87
2018-08-17T04:04:47.330Z,6.40
2018-08-17T04:07:14.471Z,6.43
2018-08-17T04:09:41.642Z,6.00
2018-08-17T04:12:08.791Z,6.03
2018-08-17T04:14:35.971Z,6.50
2018-08-17T04:17:03.134Z,6.23
2018-08-17T04:19:30.303Z,6.63
2018-08-17T04:21:57.450Z,6.80
2018-08-17T04:24:24.620Z,6.43
2018-08-17T04:26:51.765Z,6.47
2018-08-17T04:29:18.941Z,6.73
2018-08-17T04:31:46.097Z,6.63
2018-08-17T04:34:13.247Z,6.20
2018-08-17T04:36:40.465Z,6.00
2018-08-17T04:39:07.741Z,6.30
2018-08-17T04:41:34.910Z,7.00
2018-08-17T04:44:02.061Z,7.10
2018-08-17T04:46:29.236Z,7.17
2018-08-17T04:48:56.398Z,6.90
2018-08-17T04:51:23.570Z,6.60
2018-08-17T04:53:50.727Z,6.60
2018-08-17T04:56:17.894Z,6.90
2018-08-17T04:58:45.063Z,6.70
2018-08-17T05:01:12.236Z,6.10
2018-08-17T05:03:39.385Z,6.47
2018-08-17T05:06:06.563Z,6.27
2018-08-17T05:08:33.712Z,6.00
2018-08-17T05:11:00.955Z,6.40
2018-08-17T05:13:28.146Z,5.87
2018-08-17T05:15:55.293Z,6.60
2018-08-17T05:18:22.443Z,6.47
2018-08-17T05:20:49.628Z,6.83
2018-08-17T05:23:16.849Z,7.27
2018-08-17T05:25:43.960Z,6.40
2018-08-17T05:28:11.124Z,6.80
2018-08-17T05:30:38.290Z,7.07
2018-08-17T05:33:05.454Z,6.97
2018-08-17T05:35:32.632Z,7.07
2018-08-17T05:37:59.802Z,7.00
2018-08-17T05:40:26.998Z,6.73
2018-08-17T05:42:54.167Z,7.63
2018-08-17T05:45:21.347Z,7.40
2018-08-17T05:47:48.507Z,6.60
2018-08-17T05:50:15.708Z,6.97
2018-08-17T05:52:42.992Z,8.30
2018-08-17T05:55:10.150Z,6.37
2018-08-17T05:57:37.343Z,7.73
2018-08-17T06:00:05.823Z,8.80
2018-08-17T06:02:33.040Z,9.20
2018-08-17T06:05:00.230Z,10.00
2018-08-17T06:07:27.703Z,9.67
2018-08-17T06:09:54.874Z,9.10
2018-08-17T06:12:22.059Z,8.67
2018-08-17T06:14:49.221Z,9.03
2018-08-17T06:17:16.407Z,9.03
2018-08-17T06:19:43.638Z,8.63
2018-08-17T06:22:15.119Z,8.43
2018-08-17T06:24:42.292Z,8.43
2018-08-17T06:27:09.470Z,8.63
2018-08-17T06:29:36.634Z,8.97
2018-08-17T06:32:03.812Z,8.80
2018-08-17T06:34:30.999Z,9.27
2018-08-17T06:36:58.166Z,8.20
2018-08-17T06:39:25.377Z,8.83
2018-08-17T06:41:52.534Z,9.70
2018-08-17T06:44:19.726Z,10.17
2018-08-17T06:46:46.902Z,10.37
2018-08-17T06:49:14.106Z,11.10
2018-08-17T06:51:41.267Z,10.90
2018-08-17T06:54:08.452Z,11.80
2018-08-17T06:56:35.643Z,13.87
2018-08-17T06:59:02.834Z,14.37
2018-08-17T07:01:30.035Z,13.53
2018-08-17T07:03:57.249Z,14.13
2018-08-17T07:06:24.451Z,14.93
2018-08-17T07:08:51.765Z,13.20
2018-08-17T07:11:18.819Z,12.83
2018-08-17T07:13:45.988Z,14.23
2018-08-17T07:16:13.255Z,14.30
2018-08-17T07:18:40.414Z,14.87
2018-08-17T07:21:07.943Z,15.00
2018-08-17T07:23:35.106Z,16.43
2018-08-17T07:26:02.519Z,16.60
2018-08-17T07:28:29.811Z,16.57
2018-08-17T07:30:56.989Z,16.87
2018-08-17T07:33:24.188Z,16.37
2018-08-17T07:35:51.426Z,16.40
2018-08-17T07:38:18.573Z,17.97
2018-08-17T07:40:45.748Z,18.10
2018-08-17T07:43:12.939Z,17.27
2018-08-17T07:45:40.108Z,18.63
2018-08-17T07:48:07.404Z,18.60
2018-08-17T07:50:34.506Z,17.60
2018-08-17T07:53:01.712Z,18.00
2018-08-17T07:55:29.375Z,17.93
2018-08-17T07:57:56.587Z,19.73
2018-08-17T08:00:23.756Z,18.27
2018-08-17T08:02:50.973Z,19.00
2018-08-17T08:05:18.182Z,21.10
2018-08-17T08:07:45.359Z,19.17
2018-08-17T08:10:12.563Z,18.10
2018-08-17T08:12:39.769Z,19.90
2018-08-17T08:15:07.131Z,20.60
2018-08-17T08:17:34.320Z,19.27
2018-08-17T08:20:07.036Z,21.23
2018-08-17T08:22:34.251Z,22.50
2018-08-17T08:25:01.540Z,20.33
2018-08-17T08:27:28.796Z,21.07
2018-08-17T08:29:55.998Z,23.23
2018-08-17T08:32:23.187Z,22.00
2018-08-17T08:34:50.385Z,23.20
2018-08-17T08:37:17.559Z,21.50
2018-08-17T08:39:44.757Z,20.90
2018-08-17T08:42:11.952Z,20.57
2018-08-17T08:44:39.119Z,19.93
2018-08-17T08:47:06.312Z,19.90
2018-08-17T08:49:33.500Z,20.50
2018-08-17T08:52:00.711Z,20.80
2018-08-17T08:54:27.871Z,21.07
2018-08-17T08:56:55.078Z,20.20
2018-08-17T08:59:22.253Z,21.83
2018-08-17T09:01:49.521Z,20.97
2018-08-17T09:04:16.658Z,21.63
2018-08-17T09:06:43.858Z,20.90
2018-08-17T09:09:11.069Z,18.77
2018-08-17T09:11:38.312Z,20.10
2018-08-17T09:14:05.606Z,22.00
2018-08-17T09:16:32.767Z,19.47
2018-08-17T09:19:00.193Z,21.77
2018-08-17T09:21:27.371Z,21.00
2018-08-17T09:23:54.746Z,20.60
2018-08-17T09:26:21.941Z,20.13
2018-08-17T09:28:49.210Z,20.40
2018-08-17T09:31:16.392Z,19.57
2018-08-17T09:33:43.579Z,18.70
2018-08-17T09:36:10.858Z,18.50
2018-08-17T09:38:38.007Z,18.70
2018-08-17T09:41:05.494Z,16.70
2018-08-17T09:43:32.668Z,17.67
2018-08-17T09:45:59.879Z,16.90
2018-08-17T09:48:27.031Z,18.70
2018-08-17T09:50:54.217Z,17.33
2018-08-17T09:53:21.408Z,19.37
2018-08-17T09:55:48.573Z,16.57
2018-08-17T09:58:15.776Z,18.90
2018-08-17T10:00:55.051Z,18.73
2018-08-17T10:03:27.797Z,18.27
2018-08-17T10:06:00.468Z,16.63
2018-08-17T10:08:31.378Z,17.47
2018-08-17T10:10:58.720Z,16.87
2018-08-17T10:13:25.923Z,16.20
2018-08-17T10:15:53.262Z,15.53
2018-08-17T10:18:20.911Z,16.87
2018-08-17T10:20:48.287Z,15.80
2018-08-17T10:23:20.836Z,16.30
2018-08-17T10:25:48.023Z,17.00
2018-08-17T10:28:15.185Z,16.23
2018-08-17T10:30:42.371Z,14.17
2018-08-17T10:33:16.138Z,17.63
2018-08-17T10:35:43.353Z,14.47
2018-08-17T10:38:10.538Z,15.37
2018-08-17T10:40:37.755Z,15.30
2018-08-17T10:43:05.659Z,15.50
2018-08-17T10:45:33.197Z,17.20
2018-08-17T10:48:00.462Z,17.17
2018-08-17T10:50:29.927Z,15.23
2018-08-17T10:52:58.442Z,14.53
2018-08-17T10:55:33.445Z,14.03
2018-08-17T10:58:00.596Z,13.73
2018-08-17T11:00:27.796Z,13.77
2018-08-17T11:02:54.974Z,12.93
2018-08-17T11:05:22.163Z,12.77
2018-08-17T11:07:49.543Z,12.50
2018-08-17T11:10:16.716Z,13.30
2018-08-17T11:12:44.868Z,13.33
2018-08-17T11:15:12.074Z,12.23
2018-08-17T11:17:39.471Z,12.80
2018-08-17T11:20:06.682Z,12.00
2018-08-17T11:22:34.263Z,11.37
2018-08-17T11:25:02.874Z,10.20
2018-08-17T11:27:30.073Z,10.23
2018-08-17T11:29:57.249Z,11.10
2018-08-17T11:32:24.419Z,10.10
2018-08-17T11:34:53.826Z,10.10
2018-08-17T11:37:21.466Z,9.10
2018-08-17T11:39:54.750Z,9.97
2018-08-17T11:42:21.901Z,9.30
2018-08-17T11:44:49.066Z,10.70
2018-08-17T11:47:16.278Z,10.50
2018-08-17T11:49:43.451Z,8.87
2018-08-17T11:52:10.626Z,8.80
2018-08-17T11:54:37.826Z,9.50
2018-08-17T11:57:04.992Z,8.37
2018-08-17T11:59:32.158Z,8.83
2018-08-17T12:01:59.422Z,8.23
2018-08-17T12:04:26.523Z,7.27
2018-08-17T12:06:53.707Z,8.10
2018-08-17T12:09:20.886Z,7.40
2018-08-17T12:11:48.047Z,7.03
2018-08-17T12:14:15.247Z,7.00
2018-08-17T12:16:42.397Z,6.53
2018-08-17T12:19:09.574Z,6.77
2018-08-17T12:21:36.759Z,7.40
2018-08-17T12:24:03.916Z,7.93
2018-08-17T12:26:32.682Z,7.97
2018-08-17T12:28:59.841Z,7.27
2018-08-17T12:31:27.027Z,7.30
2018-08-17T12:33:54.190Z,7.37
2018-08-17T12:36:21.382Z,6.80
2018-08-17T12:38:48.579Z,7.17
2018-08-17T12:41:15.729Z,7.50
2018-08-17T12:43:42.923Z,7.27
2018-08-17T12:46:10.076Z,7.13
2018-08-17T12:48:37.243Z,8.00
2018-08-17T12:51:05.542Z,7.43
2018-08-17T12:53:32.718Z,7.93
2018-08-17T12:55:59.901Z,8.50
2018-08-17T12:58:27.062Z,7.60
2018-08-17T13:00:54.266Z,7.30
2018-08-17T13:03:21.423Z,7.20
2018-08-17T13:05:48.615Z,7.50
2018-08-17T13:08:15.799Z,6.77
2018-08-17T13:10:43.008Z,7.77
2018-08-17T13:13:11.030Z,8.90
2018-08-17T13:15:40.939Z,8.60
2018-08-17T13:18:14.484Z,8.80
2018-08-17T13:20:41.647Z,9.67
2018-08-17T13:23:08.971Z,8.30
2018-08-17T13:25:36.023Z,7.83
2018-08-17T13:28:03.183Z,8.50
2018-08-17T13:30:30.363Z,8.00
2018-08-17T13:32:57.522Z,7.37
2018-08-17T13:35:24.725Z,8.70
2018-08-17T13:37:51.879Z,7.90
2018-08-17T13:40:19.064Z,9.00
2018-08-17T13:42:46.214Z,8.10
2018-08-17T13:45:13.419Z,8.33
2018-08-17T13:47:40.618Z,8.03
2018-08-17T13:50:07.778Z,9.37
2018-08-17T13:52:35.048Z,8.60
2018-08-17T13:55:02.242Z,9.27
2018-08-17T13:57:29.401Z,8.73
2018-08-17T13:59:56.583Z,8.60
2018-08-17T14:02:23.735Z,8.33
2018-08-17T14:04:50.943Z,8.30
2018-08-17T14:07:18.159Z,8.40
2018-08-17T14:09:45.338Z,8.33
2018-08-17T14:12:12.497Z,8.70
2018-08-17T14:14:39.689Z,8.03
2018-08-17T14:17:06.967Z,7.83
2018-08-17T14:19:34.242Z,9.30
2018-08-17T14:22:01.507Z,7.30
2018-08-17T14:24:28.665Z,6.80
2018-08-17T14:26:55.842Z,6.47
2018-08-17T14:29:23.008Z,6.90
2018-08-17T14:31:50.200Z,5.80
2018-08-17T14:34:17.396Z,5.73
2018-08-17T14:36:44.547Z,6.40
2018-08-17T14:39:11.734Z,5.67
2018-08-17T14:41:56.810Z,5.30
2018-08-17T14:44:24.192Z,6.00
2018-08-17T14:46:51.548Z,6.63
2018-08-17T14:49:18.735Z,5.97
2018-08-17T14:51:46.067Z,6.60
2018-08-17T14:54:13.223Z,6.73
2018-08-17T14:56:40.404Z,7.83
2018-08-17T14:59:07.689Z,7.87
2018-08-17T15:01:35.066Z,7.70
2018-08-17T15:04:02.217Z,7.67
2018-08-17T15:06:29.424Z,8.80
2018-08-17T15:08:56.606Z,9.53
2018-08-17T15:11:23.810Z,9.03
2018-08-17T15:13:51.106Z,10.60
2018-08-17T15:16:18.271Z,10.20
2018-08-17T15:18:45.554Z,9.90
2018-08-17T15:21:12.643Z,10.00
2018-08-17T15:23:39.803Z,10.40
2018-08-17T15:26:07.174Z,11.03
2018-08-17T15:28:34.485Z,10.07
2018-08-17T15:31:01.639Z,10.60
2018-08-17T15:33:28.824Z,11.27
2018-08-17T15:35:56.011Z,11.57
2018-08-17T15:38:23.182Z,11.50
2018-08-17T15:40:50.409Z,11.60
2018-08-17T15:43:18.675Z,11.10
2018-08-17T15:45:46.434Z,10.50
2018-08-17T15:48:13.775Z,9.70
2018-08-17T15:50:40.970Z,9.83
2018-08-17T15:53:08.142Z,10.40
2018-08-17T15:55:35.360Z,10.40
2018-08-17T15:58:02.598Z,9.90
2018-08-17T16:00:29.812Z,11.80
2018-08-17T16:02:56.978Z,12.10
2018-08-17T16:05:24.144Z,11.63
2018-08-17T16:07:51.338Z,12.03
2018-08-17T16:10:18.532Z,12.00
2018-08-17T16:12:45.931Z,12.70
2018-08-17T16:15:13.104Z,13.50
2018-08-17T16:17:40.284Z,12.80
2018-08-17T16:20:08.278Z,12.90
2018-08-17T16:22:35.501Z,13.53
2018-08-17T16:25:02.792Z,13.20
2018-08-17T16:27:30.036Z,14.43
2018-08-17T16:29:57.229Z,14.80
2018-08-17T16:32:24.416Z,14.53
2018-08-17T16:34:51.617Z,16.03
2018-08-17T16:37:18.817Z,16.17
2018-08-17T16:39:51.390Z,16.67
2018-08-17T16:42:23.791Z,16.27
2018-08-17T16:44:51.061Z,16.93
2018-08-17T16:47:18.210Z,17.57
2018-08-17T16:49:45.386Z,15.90
2018-08-17T16:52:12.576Z,15.73
2018-08-17T16:54:39.790Z,15.70
2018-08-17T16:57:06.959Z,15.40
2018-08-17T16:59:34.587Z,14.90
2018-08-17T17:02:01.806Z,16.20
2018-08-17T17:04:29.521Z,15.70
2018-08-17T17:06:56.707Z,15.40
2018-08-17T17:09:23.886Z,14.87
2018-08-17T17:11:51.037Z,15.97
2018-08-17T17:14:18.268Z,15.73
2018-08-17T17:16:47.491Z,15.30
2018-08-17T17:19:16.213Z,15.87
2018-08-17T17:21:44.880Z,14.50
2018-08-17T17:24:12.068Z,14.37
2018-08-17T17:26:39.422Z,15.97
2018-08-17T17:29:06.871Z,14.90
2018-08-17T17:31:34.039Z,16.13
2018-08-17T17:34:01.347Z,14.10
2018-08-17T17:36:28.514Z,14.67
2018-08-17T17:38:55.684Z,14.50
2018-08-17T17:41:22.866Z,13.97
2018-08-17T17:43:50.046Z,14.40
2018-08-17T17:46:17.230Z,15.20
2018-08-17T17:48:44.435Z,14.43
2018-08-17T17:51:11.666Z,15.10
2018-08-17T17:53:38.819Z,15.20
2018-08-17T17:56:06.047Z,14.50
2018-08-17T17:58:33.237Z,15.50
2018-08-17T18:01:05.999Z,14.20
2018-08-17T18:03:33.182Z,15.10
2018-08-17T18:06:01.031Z,16.27
2018-08-17T18:08:29.045Z,16.13
2018-08-17T18:10:56.301Z,15.67
2018-08-17T18:13:23.496Z,15.87
2018-08-17T18:15:50.699Z,16.20
2018-08-17T18:18:17.927Z,15.47
2018-08-17T18:20:45.162Z,16.03
2018-08-17T18:23:12.327Z,15.33
2018-08-17T18:25:39.510Z,16.10
2018-08-17T18:28:06.989Z,17.13
2018-08-17T18:30:34.189Z,15.37
2018-08-17T18:33:01.361Z,16.37
2018-08-17T18:35:28.583Z,17.10
2018-08-17T18:37:55.863Z,16.50
2018-08-17T18:40:23.067Z,15.00
2018-08-17T18:42:50.268Z,17.23
2018-08-17T18:45:17.497Z,16.17
2018-08-17T18:47:44.651Z,17.60
2018-08-17T18:50:11.839Z,16.50
2018-08-17T18:52:39.111Z,16.67
2018-08-17T18:55:06.260Z,16.80
2018-08-17T18:57:33.469Z,17.33
2018-08-17T19:00:01.007Z,15.90
2018-08-17T19:02:28.219Z,16.53
2018-08-17T19:04:55.382Z,15.40
2018-08-17T19:07:22.566Z,17.20
2018-08-17T19:09:49.767Z,18.17
2018-08-17T19:12:16.935Z,17.53
2018-08-17T19:14:46.751Z,15.73
2018-08-17T19:17:19.309Z,17.30
2018-08-17T19:19:46.528Z,16.53
2018-08-17T19:22:13.726Z,17.10
2018-08-17T19:24:40.935Z,17.10
2018-08-17T19:27:08.163Z,17.27
2018-08-17T19:29:35.375Z,17.67
2018-08-17T19:32:02.564Z,18.17
2018-08-17T19:34:31.098Z,16.40
2018-08-17T19:36:58.311Z,18.90
2018-08-17T19:39:30.910Z,18.53
2018-08-17T19:41:58.258Z,19.43
2018-08-17T19:44:25.407Z,17.87
2018-08-17T19:46:52.588Z,17.03
2018-08-17T19:49:19.792Z,17.73
2018-08-17T19:51:46.968Z,16.57
2018-08-17T19:54:14.685Z,16.93
2018-08-17T19:56:43.998Z,16.03
2018-08-17T19:59:11.167Z,16.37
2018-08-17T20:01:38.409Z,15.30
2018-08-17T20:04:05.588Z,15.20
2018-08-17T20:06:32.796Z,14.37
2018-08-17T20:08:59.974Z,13.63
2018-08-17T20:11:27.991Z,14.20
2018-08-17T20:13:55.197Z,12.67
2018-08-17T20:16:28.689Z,13.73
2018-08-17T20:18:55.903Z,15.20
2018-08-17T20:21:24.070Z,13.80
2018-08-17T20:23:51.527Z,14.97
2018-08-17T20:26:19.148Z,13.40
2018-08-17T20:28:46.268Z,14.20
2018-08-17T20:31:14.177Z,14.23
2018-08-17T20:33:41.386Z,14.10
2018-08-17T20:36:12.056Z,13.77
2018-08-17T20:38:39.306Z,11.77
2018-08-17T20:41:06.514Z,12.17
2018-08-17T20:43:33.708Z,12.77
2018-08-17T20:46:00.883Z,12.87
2018-08-17T20:48:28.086Z,11.57
2018-08-17T20:50:55.319Z,11.63
2018-08-17T20:53:22.488Z,11.63
2018-08-17T20:55:49.679Z,10.47
2018-08-17T20:58:16.848Z,11.37
2018-08-17T21:00:44.406Z,10.30
2018-08-17T21:03:11.624Z,10.90
2018-08-17T21:05:38.805Z,10.13
2018-08-17T21:08:05.999Z,9.77
2018-08-17T21:10:33.246Z,9.70
2018-08-17T21:13:00.466Z,9.50
2018-08-17T21:15:27.663Z,9.73
2018-08-17T21:17:54.815Z,9.10
2018-08-17T21:20:22.026Z,10.37
2018-08-17T21:22:49.214Z,9.30
2018-08-17T21:25:16.454Z,10.20
2018-08-17T21:27:43.692Z,9.13
2018-08-17T21:30:11.283Z,10.23
2018-08-17T21:32:38.802Z,10.00
2018-08-17T21:35:06.829Z,10.47
2018-08-17T21:37:34.020Z,9.73
2018-08-17T21:40:01.180Z,9.13
2018-08-17T21:42:28.380Z,9.20
2018-08-17T21:44:55.551Z,8.53
2018-08-17T21:47:22.745Z,9.40
2018-08-17T21:49:49.931Z,8.50
2018-08-17T21:52:23.236Z,9.60
2018-08-17T21:54:50.419Z,8.90
2018-08-17T21:57:17.606Z,9.00
2018-08-17T21:59:49.197Z,8.50
2018-08-17T22:02:16.513Z,8.77
2018-08-17T22:04:43.877Z,9.00
2018-08-17T22:07:19.442Z,8.93
2018-08-17T22:09:46.605Z,8.73
2018-08-17T22:12:13.949Z,8.70
2018-08-17T22:14:41.129Z,8.90
2018-08-17T22:17:14.077Z,8.93
2018-08-17T22:19:42.538Z,9.47
2018-08-17T22:22:10.846Z,9.73
2018-08-17T22:24:43.491Z,11.23
2018-08-17T22:27:10.798Z,10.70
2018-08-17T22:29:38.133Z,11.33
2018-08-17T22:32:05.351Z,11.40
2018-08-17T22:34:32.510Z,10.30
2018-08-17T22:37:00.099Z,8.40
2018-08-17T22:39:27.286Z,10.07
2018-08-17T22:41:54.526Z,9.80
2018-08-17T22:44:22.444Z,10.83
2018-08-17T22:46:55.170Z,10.50
2018-08-17T22:49:22.368Z,11.70
2018-08-17T22:51:49.551Z,10.93
2018-08-17T22:54:16.739Z,12.00
2018-08-17T22:56:43.912Z,10.80
2018-08-17T22:59:11.112Z,11.40
2018-08-17T23:01:38.307Z,10.63
2018-08-17T23:04:05.603Z,9.87
2018-08-17T23:06:32.804Z,10.60
2018-08-17T23:08:59.993Z,11.60
2018-08-17T23:11:34.462Z,10.33
2018-08-17T23:14:06.017Z,11.70
2018-08-17T23:16:33.234Z,11.00
2018-08-17T23:19:00.426Z,10.93
2018-08-17T23:21:27.619Z,11.23
2018-08-17T23:23:54.783Z,10.30
2018-08-17T23:26:21.942Z,10.10
2018-08-17T23:28:49.139Z,11.00
2018-08-17T23:31:16.311Z,10.87
2018-08-17T23:33:43.494Z,10.03
2018-08-17T23:36:10.731Z,12.10
2018-08-17T23:38:37.937Z,12.17
2018-08-17T23:41:05.152Z,11.20
2018-08-17T23:43:32.326Z,11.37
2018-08-17T23:45:59.500Z,11.40
2018-08-17T23:48:26.683Z,11.93
2018-08-17T23:50:53.843Z,11.47
2018-08-17T23:53:21.069Z,10.00
2018-08-17T23:55:48.266Z,10.70
2018-08-17T23:58:15.458Z,10.13
